Eastpoint, FL

6:59 AM EST on January 30, 2015 (GMT -0500)
Panama City Tyndall AFB | Change Station
CLOSE
Current Station
Airport
Location: Panama City Tyndall AFB,
Elevation: 16 ft
Nearby Weather Stations

Elev 16 ft 30.07 °N, 85.58 °W | Updated 1 hour ago

Mostly Cloudy
Mostly Cloudy
60 °F
Feels Like 60 °F
N
9
Wind Variable Wind from North

Today
High -- | Low -- °F
--% Chance of Precip.
Yesterday
High -- | Low -- °F
Precip. -- in
7:30 AM 6:15 PM
Waxing Gibbous, 82% visible
Pressure 30.20 in
Visibility 10.0 miles
Clouds Few 12000 ft
Mostly Cloudy 23000 ft
Dew Point 55 °F
Humidity 81%
Rainfall 0.00 in
Snow Depth Not available.
UV 0 out of 12
Pollen 5.90 out of 12
Air Quality Not available.
Flu Activity Not available.
METAR KPAM 301058Z AUTO 35008KT 10SM FEW120 BKN230 16/13 A3019 RMK AO2 SLP226 T01580126 $

More Conditions Fewer Conditions

Pressure 30.20 in
Visibility 10.0 miles
Clouds Few 12000 ft
Mostly Cloudy 23000 ft
Dew Point 55 °F
Humidity 81%
Rainfall 0.00 in
Snow Depth Not available.
UV 0 out of 12
Pollen 5.90 out of 12
Air Quality Not available.
Flu Activity Not available.
METAR KPAM 301058Z AUTO 35008KT 10SM FEW120 BKN230 16/13 A3019 RMK AO2 SLP226 T01580126 $

More Conditions Fewer Conditions

10-Day Weather Forecast

Almanac

Astronomy

Jan. 30, 2015 Rise Set
Actual Time
Civil Twilight
Nautical Twilight
Astronomical Twilight
Moon
Length of Visible Light
Length of Day
Tomorrow will be .
, % of the Moon is Illuminated

Today's Extremes

State Highs State Lows

Community

WunderPhotos

Upload Photos

1,791,737 photos uploaded!

WunderBlogs® & News

Nearby

Air Quality

  Air Quality AQ Index Pollutant
Not available.

Snow Depth

Station Depth Elevation

Earthquake Activity

City Distance Mag. Time & Date
Minimum magnitude displayed is 2.5.

Coastal Water Temperatures

Place Temperature

Nearby Weather Stations